Time;durP1;ratioP1;P1;durP2;ratioP2;P2;SDS_P1;SDS_P2;PMS_P1;PMS_P2;Temp;Humidity;BMP_temperature;BMP_pressure;BME280_temperature;BME280_humidity;BME280_pressure;Samples;Min_cycle;Max_cycle;Signal;HPM_P1;HPM_P2
2021/07/20 00:02:24;;;;;;;25.73;16.13;;;;;;;;;;4948104;28;20047;-78
2021/07/20 00:04:50;;;;;;;23.50;17.33;;;;;;;;;;4976388;28;20019;-78
2021/07/20 00:07:16;;;;;;;23.58;15.80;;;;;;;;;;4959094;28;20041;-78
2021/07/20 00:09:42;;;;;;;23.65;16.48;;;;;;;;;;4975098;28;20026;-79
2021/07/20 00:12:08;;;;;;;20.60;15.77;;;;;;;;;;4939942;29;20062;-78
2021/07/20 00:14:34;;;;;;;21.10;15.65;;;;;;;;;;4957777;29;20110;-79
2021/07/20 00:17:00;;;;;;;21.88;16.90;;;;;;;;;;4957621;29;20051;-78
2021/07/20 00:19:26;;;;;;;21.02;16.17;;;;;;;;;;4956665;29;20028;-78
2021/07/20 00:21:52;;;;;;;23.85;17.08;;;;;;;;;;4939654;29;20030;-78
2021/07/20 00:24:18;;;;;;;21.13;15.93;;;;;;;;;;4957260;29;20031;-79
2021/07/20 00:26:45;;;;;;;23.85;15.95;;;;;;;;;;4942687;29;20461;-77
2021/07/20 00:29:11;;;;;;;22.08;17.00;;;;;;;;;;4937678;29;20436;-78
2021/07/20 00:31:37;;;;;;;22.77;17.17;;;;;;;;;;4938855;29;20083;-78
2021/07/20 00:34:03;;;;;;;24.05;15.80;;;;;;;;;;4971753;28;20066;-77
2021/07/20 00:36:29;;;;;;;21.27;15.70;;;;;;;;;;4975891;28;20035;-78
2021/07/20 00:38:55;;;;;;;23.80;16.60;;;;;;;;;;4976468;28;20126;-78
2021/07/20 00:41:21;;;;;;;22.55;16.38;;;;;;;;;;4951343;29;20547;-79
2021/07/20 00:43:47;;;;;;;22.83;15.82;;;;;;;;;;4937839;28;20030;-78
2021/07/20 00:46:13;;;;;;;23.83;16.48;;;;;;;;;;4958870;28;20050;-79
2021/07/20 00:48:39;;;;;;;22.45;16.48;;;;;;;;;;4975511;28;20027;-78
2021/07/20 00:51:05;;;;;;;25.52;16.50;;;;;;;;;;4974239;28;20055;-78
2021/07/20 00:53:31;;;;;;;21.67;15.63;;;;;;;;;;4957719;29;20038;-78
2021/07/20 00:55:57;;;;;;;23.77;16.75;;;;;;;;;;4958036;28;20046;-79
2021/07/20 00:58:24;;;;;;;20.88;16.58;;;;;;;;;;4957917;28;20027;-79
2021/07/20 01:00:52;;;;;;;25.40;16.10;;;;;;;;;;4962138;28;20109;-78
2021/07/20 01:03:18;;;;;;;26.80;16.75;;;;;;;;;;4975284;28;20030;-78
2021/07/20 01:05:45;;;;;;;25.35;17.05;;;;;;;;;;4940498;29;20028;-78
2021/07/20 01:08:11;;;;;;;20.60;15.52;;;;;;;;;;4940600;29;20036;-79
2021/07/20 01:10:39;;;;;;;22.65;15.18;;;;;;;;;;4930035;29;20036;-78
2021/07/20 01:13:06;;;;;;;23.98;15.70;;;;;;;;;;4959058;29;20023;-79
2021/07/20 01:15:32;;;;;;;21.25;15.07;;;;;;;;;;4957498;29;20042;-78
2021/07/20 01:17:59;;;;;;;25.08;16.33;;;;;;;;;;4942390;29;20027;-78
2021/07/20 01:20:27;;;;;;;22.73;16.77;;;;;;;;;;4958656;29;20055;-79
2021/07/20 01:22:59;;;;;;;21.95;16.13;;;;;;;;;;4958745;28;20055;-78
2021/07/20 01:25:26;;;;;;;20.50;14.70;;;;;;;;;;4966622;29;20042;-77
2021/07/20 01:27:54;;;;;;;21.45;16.08;;;;;;;;;;4963057;29;20031;-77
2021/07/20 01:30:20;;;;;;;22.33;15.15;;;;;;;;;;4975613;28;20176;-76
2021/07/20 01:32:47;;;;;;;22.35;16.27;;;;;;;;;;4995279;28;20034;-77
2021/07/20 01:35:14;;;;;;;23.45;15.45;;;;;;;;;;4993847;28;20094;-79
2021/07/20 01:37:41;;;;;;;20.70;15.88;;;;;;;;;;4980611;28;20050;-78
2021/07/20 01:40:09;;;;;;;24.27;16.70;;;;;;;;;;4948395;29;20046;-77
2021/07/20 01:42:35;;;;;;;22.85;16.52;;;;;;;;;;4961713;29;20043;-78
2021/07/20 01:45:02;;;;;;;34.15;18.08;;;;;;;;;;4945457;29;20023;-78
2021/07/20 01:47:28;;;;;;;23.08;16.52;;;;;;;;;;4945653;29;20485;-77
2021/07/20 01:49:58;;;;;;;21.80;16.30;;;;;;;;;;4962807;29;20051;-77
2021/07/20 01:52:25;;;;;;;22.33;16.33;;;;;;;;;;4954761;29;20036;-78
2021/07/20 01:54:51;;;;;;;25.63;16.90;;;;;;;;;;4944443;29;20028;-78
2021/07/20 01:57:18;;;;;;;24.08;17.08;;;;;;;;;;4943240;29;20058;-78
2021/07/20 01:59:44;;;;;;;24.13;16.20;;;;;;;;;;4943784;29;20027;-77
2021/07/20 02:02:25;;;;;;;21.00;16.17;;;;;;;;;;4945524;29;20054;-78
2021/07/20 02:10:21;;;;;;;21.75;15.80;;;;;;;;;;4994169;28;20041;-76
2021/07/20 02:12:47;;;;;;;26.58;17.05;;;;;;;;;;4984476;28;20081;-76
2021/07/20 02:15:14;;;;;;;22.48;16.55;;;;;;;;;;4975052;28;20038;-76
2021/07/20 02:17:40;;;;;;;22.88;16.00;;;;;;;;;;4985591;28;20446;-76
2021/07/20 02:20:08;;;;;;;20.92;15.45;;;;;;;;;;4955279;28;20484;-76
2021/07/20 02:22:35;;;;;;;21.55;15.73;;;;;;;;;;4955717;28;20058;-76
2021/07/20 02:25:03;;;;;;;22.88;16.05;;;;;;;;;;4955727;28;20062;-76
2021/07/20 02:27:30;;;;;;;24.08;16.05;;;;;;;;;;4954310;29;20074;-76
2021/07/20 02:29:58;;;;;;;22.15;15.23;;;;;;;;;;4956114;28;20038;-76
2021/07/20 02:32:25;;;;;;;25.85;16.33;;;;;;;;;;4968279;28;20085;-76
2021/07/20 02:34:53;;;;;;;22.50;15.80;;;;;;;;;;4973144;28;20114;-76
2021/07/20 02:37:21;;;;;;;24.65;16.50;;;;;;;;;;4974793;28;20019;-77
2021/07/20 02:39:47;;;;;;;23.90;16.33;;;;;;;;;;4957165;28;20097;-77
2021/07/20 02:42:13;;;;;;;25.63;18.23;;;;;;;;;;4966254;28;20035;-76
2021/07/20 02:44:40;;;;;;;26.30;17.95;;;;;;;;;;4955374;29;20408;-76
2021/07/20 02:47:06;;;;;;;24.85;15.88;;;;;;;;;;4955267;28;20027;-76
2021/07/20 02:49:32;;;;;;;25.08;16.55;;;;;;;;;;4954642;29;20036;-76
2021/07/20 02:51:59;;;;;;;22.90;16.35;;;;;;;;;;4955118;29;20027;-76
2021/07/20 02:54:26;;;;;;;25.02;18.33;;;;;;;;;;4958581;28;20038;-76
2021/07/20 02:56:52;;;;;;;26.13;18.55;;;;;;;;;;4955075;28;20042;-76
2021/07/20 02:59:21;;;;;;;21.42;15.88;;;;;;;;;;4959281;28;20030;-76
2021/07/20 03:01:47;;;;;;;23.30;16.27;;;;;;;;;;4973243;28;20026;-76
2021/07/20 03:04:13;;;;;;;22.50;16.77;;;;;;;;;;4974344;28;20086;-76
2021/07/20 03:06:42;;;;;;;24.83;16.60;;;;;;;;;;4956609;28;20031;-76
2021/07/20 03:09:09;;;;;;;22.75;16.90;;;;;;;;;;4953409;28;20039;-76
2021/07/20 03:11:37;;;;;;;27.42;17.95;;;;;;;;;;4954780;29;20111;-76
2021/07/20 03:14:06;;;;;;;25.05;16.85;;;;;;;;;;4954839;28;20051;-76
2021/07/20 03:16:34;;;;;;;25.95;17.33;;;;;;;;;;4954813;28;20400;-76
2021/07/20 03:19:00;;;;;;;28.67;17.58;;;;;;;;;;4970406;28;20039;-76
2021/07/20 03:21:27;;;;;;;30.45;18.90;;;;;;;;;;4973265;28;20062;-76
2021/07/20 03:23:54;;;;;;;25.38;18.73;;;;;;;;;;4966611;28;20419;-76
2021/07/20 03:26:22;;;;;;;26.55;17.60;;;;;;;;;;4954647;29;20043;-76
2021/07/20 03:28:48;;;;;;;25.58;18.08;;;;;;;;;;4953696;28;20043;-76
2021/07/20 03:31:14;;;;;;;26.60;16.60;;;;;;;;;;4973475;28;20031;-76
2021/07/20 03:33:41;;;;;;;26.73;17.85;;;;;;;;;;4973597;28;20085;-77
2021/07/20 03:36:07;;;;;;;24.52;16.75;;;;;;;;;;4973743;28;20023;-77
2021/07/20 03:38:35;;;;;;;22.55;17.33;;;;;;;;;;4973272;28;20027;-76
2021/07/20 03:41:01;;;;;;;26.23;17.60;;;;;;;;;;4958762;28;20497;-77
2021/07/20 03:43:27;;;;;;;25.75;17.55;;;;;;;;;;4973658;28;20395;-77
2021/07/20 03:45:53;;;;;;;27.75;17.58;;;;;;;;;;4973162;28;20034;-76
2021/07/20 03:48:20;;;;;;;28.13;18.75;;;;;;;;;;4962672;28;20035;-76
2021/07/20 03:50:47;;;;;;;25.52;17.77;;;;;;;;;;4953551;29;20118;-76
2021/07/20 03:53:14;;;;;;;25.98;17.58;;;;;;;;;;4956101;28;20023;-76
2021/07/20 03:55:45;;;;;;;24.77;17.02;;;;;;;;;;4954620;28;20065;-76
2021/07/20 03:58:13;;;;;;;22.42;16.20;;;;;;;;;;4954300;28;20039;-76
2021/07/20 04:00:39;;;;;;;25.77;16.90;;;;;;;;;;4952325;28;20412;-76
2021/07/20 04:03:21;;;;;;;24.27;17.10;;;;;;;;;;4954513;28;20059;-76
2021/07/20 04:05:47;;;;;;;24.05;16.38;;;;;;;;;;4972155;28;20038;-76
2021/07/20 04:08:14;;;;;;;23.42;16.75;;;;;;;;;;4971808;28;20097;-76
2021/07/20 04:10:41;;;;;;;28.02;18.15;;;;;;;;;;4972537;28;20062;-75
2021/07/20 04:13:11;;;;;;;25.70;17.02;;;;;;;;;;4968207;28;20483;-76
2021/07/20 04:15:40;;;;;;;23.80;16.45;;;;;;;;;;4966510;28;20027;-76
2021/07/20 04:18:06;;;;;;;20.98;16.10;;;;;;;;;;4952282;29;20511;-76
2021/07/20 04:20:32;;;;;;;27.23;17.38;;;;;;;;;;4951945;29;20070;-76
2021/07/20 04:22:58;;;;;;;31.27;18.65;;;;;;;;;;4952683;29;20035;-76
2021/07/20 04:25:24;;;;;;;29.17;18.25;;;;;;;;;;4953912;28;20034;-76
2021/07/20 04:27:51;;;;;;;25.25;17.55;;;;;;;;;;4957012;28;20042;-76
2021/07/20 04:30:17;;;;;;;27.02;17.05;;;;;;;;;;4953282;29;20035;-76
2021/07/20 04:32:47;;;;;;;27.55;17.23;;;;;;;;;;4955908;28;20035;-76
2021/07/20 04:35:14;;;;;;;25.80;17.60;;;;;;;;;;4973280;28;20388;-76
2021/07/20 04:37:41;;;;;;;27.92;18.45;;;;;;;;;;4972799;28;20031;-76
2021/07/20 04:40:09;;;;;;;27.65;17.58;;;;;;;;;;4963235;28;20027;-75
2021/07/20 04:42:36;;;;;;;27.33;17.65;;;;;;;;;;4952655;28;20033;-75
2021/07/20 04:45:03;;;;;;;24.77;17.20;;;;;;;;;;4953623;29;20031;-75
2021/07/20 04:47:29;;;;;;;26.30;16.67;;;;;;;;;;4951484;28;20028;-75
2021/07/20 04:49:55;;;;;;;24.02;16.50;;;;;;;;;;4951550;29;20114;-74
2021/07/20 04:52:21;;;;;;;24.40;16.23;;;;;;;;;;4964416;28;20073;-75
2021/07/20 04:54:47;;;;;;;28.02;16.90;;;;;;;;;;4972796;28;20484;-75
2021/07/20 04:57:13;;;;;;;23.52;16.13;;;;;;;;;;4971518;28;20027;-75
2021/07/20 04:59:39;;;;;;;19.92;14.75;;;;;;;;;;4955387;28;20082;-75
2021/07/20 05:02:07;;;;;;;22.02;16.00;;;;;;;;;;4956047;29;20059;-75
2021/07/20 05:04:33;;;;;;;22.85;15.43;;;;;;;;;;4969091;28;20095;-75
2021/07/20 05:07:00;;;;;;;20.90;14.50;;;;;;;;;;4976361;28;20027;-75
2021/07/20 05:09:26;;;;;;;19.55;13.48;;;;;;;;;;4975776;28;20126;-75
2021/07/20 05:11:52;;;;;;;23.08;13.57;;;;;;;;;;4976295;28;20034;-75
2021/07/20 05:14:19;;;;;;;18.42;13.25;;;;;;;;;;4975006;28;20031;-75
2021/07/20 05:16:45;;;;;;;16.52;12.65;;;;;;;;;;4963074;28;20058;-75
2021/07/20 05:19:11;;;;;;;19.75;12.82;;;;;;;;;;4954721;29;20114;-75
2021/07/20 05:21:38;;;;;;;17.73;12.88;;;;;;;;;;4955707;29;20031;-75
2021/07/20 05:24:06;;;;;;;22.58;14.55;;;;;;;;;;4956761;28;20035;-75
2021/07/20 05:26:32;;;;;;;17.08;12.85;;;;;;;;;;4955038;29;20055;-75
2021/07/20 05:28:59;;;;;;;17.48;12.57;;;;;;;;;;4967966;28;20039;-74
2021/07/20 05:31:26;;;;;;;18.92;13.05;;;;;;;;;;4975940;28;20356;-75
2021/07/20 05:33:52;;;;;;;17.95;13.07;;;;;;;;;;4975640;28;20435;-75
2021/07/20 05:36:18;;;;;;;19.48;12.88;;;;;;;;;;4974679;28;20026;-75
2021/07/20 05:38:44;;;;;;;18.58;12.95;;;;;;;;;;4975568;28;20082;-74
2021/07/20 05:41:11;;;;;;;19.48;13.18;;;;;;;;;;4956215;28;20058;-77
2021/07/20 05:43:37;;;;;;;20.02;13.88;;;;;;;;;;4955027;29;20055;-77
2021/07/20 05:46:03;;;;;;;19.52;12.55;;;;;;;;;;4956440;29;20055;-77
2021/07/20 05:48:30;;;;;;;16.83;12.35;;;;;;;;;;4956531;28;20027;-76
2021/07/20 05:50:59;;;;;;;18.63;12.57;;;;;;;;;;4955572;28;20050;-76
2021/07/20 05:53:28;;;;;;;18.52;12.70;;;;;;;;;;4961718;28;20036;-76
2021/07/20 05:55:55;;;;;;;21.15;12.82;;;;;;;;;;4949754;29;20027;-76
2021/07/20 05:58:22;;;;;;;17.98;13.23;;;;;;;;;;4956954;28;20077;-77
2021/07/20 06:00:48;;;;;;;19.05;13.27;;;;;;;;;;4958390;28;20032;-76
2021/07/20 06:03:15;;;;;;;25.02;13.75;;;;;;;;;;4963213;28;20043;-76
2021/07/20 06:05:45;;;;;;;19.52;13.05;;;;;;;;;;4959804;28;20447;-76
2021/07/20 06:08:18;;;;;;;19.08;13.13;;;;;;;;;;4954455;28;20031;-75
2021/07/20 06:10:44;;;;;;;;;;;;;;;;;;4939452;28;20038;-77
2021/07/20 06:13:10;;;;;;;19.52;12.65;;;;;;;;;;4951325;28;19910;-77
2021/07/20 06:15:37;;;;;;;21.40;12.85;;;;;;;;;;4954338;28;20051;-77
2021/07/20 06:18:03;;;;;;;23.30;12.77;;;;;;;;;;4951114;28;20625;-77
2021/07/20 06:20:30;;;;;;;20.02;12.85;;;;;;;;;;4954117;28;20063;-76
2021/07/20 06:22:57;;;;;;;20.10;12.45;;;;;;;;;;4955020;28;20087;-76
2021/07/20 06:25:24;;;;;;;19.70;12.30;;;;;;;;;;4975167;28;20025;-77
2021/07/20 06:27:50;;;;;;;18.15;12.68;;;;;;;;;;4973745;28;20045;-76
2021/07/20 06:30:18;;;;;;;20.00;12.02;;;;;;;;;;4958122;28;20031;-77
2021/07/20 06:32:44;;;;;;;24.55;12.55;;;;;;;;;;4955441;28;20421;-77
2021/07/20 06:35:13;;;;;;;21.45;13.38;;;;;;;;;;4973045;28;20125;-76
2021/07/20 06:37:41;;;;;;;19.70;11.98;;;;;;;;;;4974739;28;20027;-77
2021/07/20 06:40:08;;;;;;;17.35;12.13;;;;;;;;;;4974054;28;20061;-76
2021/07/20 06:42:34;;;;;;;17.40;11.68;;;;;;;;;;4973764;28;20041;-76
2021/07/20 06:45:00;;;;;;;18.77;12.43;;;;;;;;;;4969929;28;20034;-77
2021/07/20 06:47:26;;;;;;;21.02;12.35;;;;;;;;;;4955335;28;20035;-77
2021/07/20 06:49:53;;;;;;;17.23;11.80;;;;;;;;;;4954819;28;20564;-76
2021/07/20 06:52:19;;;;;;;21.40;11.63;;;;;;;;;;4953395;29;20078;-77
2021/07/20 06:54:45;;;;;;;18.33;11.95;;;;;;;;;;4953746;28;20035;-77
2021/07/20 06:57:13;;;;;;;19.60;12.02;;;;;;;;;;4954937;28;20070;-77
2021/07/20 06:59:40;;;;;;;15.77;11.57;;;;;;;;;;4954581;28;20023;-77
2021/07/20 07:02:06;;;;;;;15.20;11.32;;;;;;;;;;4955155;28;20027;-77
2021/07/20 07:04:43;;;;;;;18.83;11.35;;;;;;;;;;4955162;28;20042;-77
2021/07/20 07:07:09;;;;;;;18.17;11.88;;;;;;;;;;4954868;28;20073;-77
2021/07/20 07:09:35;;;;;;;18.25;11.98;;;;;;;;;;4954375;28;20102;-76
2021/07/20 07:12:02;;;;;;;17.25;11.32;;;;;;;;;;4949379;28;20038;-76
2021/07/20 07:14:30;;;;;;;18.60;11.25;;;;;;;;;;4953668;28;20220;-75
2021/07/20 07:16:56;;;;;;;16.60;10.60;;;;;;;;;;4956775;28;20030;-77
2021/07/20 07:19:23;;;;;;;16.35;10.52;;;;;;;;;;4958583;28;20396;-77
2021/07/20 07:21:50;;;;;;;16.80;10.00;;;;;;;;;;4968607;28;20094;-76
2021/07/20 07:24:17;;;;;;;18.52;10.63;;;;;;;;;;4974177;28;20039;-77
2021/07/20 07:26:44;;;;;;;14.18;9.68;;;;;;;;;;4973819;28;20034;-77
2021/07/20 07:29:11;;;;;;;16.90;10.45;;;;;;;;;;4973200;28;20408;-76
2021/07/20 07:31:37;;;;;;;17.52;10.80;;;;;;;;;;4968145;28;20388;-77
2021/07/20 07:34:04;;;;;;;17.20;10.15;;;;;;;;;;4953390;29;20039;-77
2021/07/20 07:36:30;;;;;;;15.02;9.55;;;;;;;;;;4944472;28;20559;-75
2021/07/20 07:39:01;;;;;;;14.95;9.07;;;;;;;;;;4955431;28;20023;-78
2021/07/20 07:41:28;;;;;;;16.73;10.13;;;;;;;;;;4955645;29;20110;-78
2021/07/20 07:43:55;;;;;;;15.10;9.60;;;;;;;;;;4956249;28;20487;-78
2021/07/20 07:46:21;;;;;;;13.48;9.95;;;;;;;;;;4954649;28;20038;-78
2021/07/20 07:48:48;;;;;;;16.38;10.65;;;;;;;;;;4957945;28;20403;-77
2021/07/20 07:51:14;;;;;;;13.32;9.38;;;;;;;;;;4957213;28;20440;-78
2021/07/20 07:53:41;;;;;;;14.85;9.30;;;;;;;;;;4972202;28;20158;-79
2021/07/20 07:56:07;;;;;;;16.90;9.63;;;;;;;;;;4977723;28;20034;-78
2021/07/20 07:58:34;;;;;;;14.63;9.20;;;;;;;;;;4969464;28;20019;-78
2021/07/20 08:01:01;;;;;;;15.38;8.75;;;;;;;;;;4977054;28;20027;-79
2021/07/20 08:03:31;;;;;;;17.08;9.90;;;;;;;;;;4991991;28;20031;-78
2021/07/20 08:05:58;;;;;;;16.17;9.00;;;;;;;;;;4977475;28;20026;-78
2021/07/20 08:08:25;;;;;;;15.63;8.30;;;;;;;;;;4994361;23;20025;-77
2021/07/20 08:10:51;;;;;;;15.02;8.90;;;;;;;;;;4944504;28;20027;-77
2021/07/20 08:13:18;;;;;;;10.75;7.97;;;;;;;;;;4973817;28;20023;-77
2021/07/20 08:15:45;;;;;;;16.30;8.55;;;;;;;;;;4971881;28;20076;-78
2021/07/20 08:18:12;;;;;;;15.73;8.20;;;;;;;;;;4959464;28;20027;-77
2021/07/20 08:20:38;;;;;;;14.00;7.55;;;;;;;;;;4952785;29;20036;-77
2021/07/20 08:23:05;;;;;;;10.57;8.02;;;;;;;;;;4967440;28;20035;-77
2021/07/20 08:25:36;;;;;;;13.48;8.93;;;;;;;;;;4953127;29;20050;-77
2021/07/20 08:28:02;;;;;;;13.38;8.52;;;;;;;;;;4968077;28;20039;-77
2021/07/20 08:30:31;;;;;;;15.50;9.18;;;;;;;;;;4967585;28;20036;-77
2021/07/20 08:32:58;;;;;;;13.52;8.60;;;;;;;;;;4953011;29;20141;-77
2021/07/20 08:35:26;;;;;;;18.95;8.50;;;;;;;;;;4953274;28;20035;-77
2021/07/20 08:37:52;;;;;;;19.02;9.07;;;;;;;;;;4951588;29;20031;-77
2021/07/20 08:40:29;;;;;;;15.52;8.40;;;;;;;;;;4951301;28;20027;-77
2021/07/20 08:43:02;;;;;;;14.13;8.43;;;;;;;;;;4953341;29;20038;-77
2021/07/20 08:45:28;;;;;;;;;;;;;;;;;;4953780;29;20023;-77
2021/07/20 08:47:54;;;;;;;13.80;8.15;;;;;;;;;;4953246;28;19907;-77
2021/07/20 08:50:26;;;;;;;20.52;8.82;;;;;;;;;;4952817;28;20042;-77
2021/07/20 08:52:52;;;;;;;;;;;;;;;;;;4952346;29;20037;-77
2021/07/20 08:55:20;;;;;;;14.02;7.05;;;;;;;;;;4952138;29;19910;-77
2021/07/20 08:57:48;;;;;;;13.93;8.07;;;;;;;;;;4952911;28;20101;-77
2021/07/20 09:00:19;;;;;;;13.55;8.13;;;;;;;;;;4966855;28;20042;-77
2021/07/20 09:02:48;;;;;;;12.32;7.80;;;;;;;;;;4953295;29;20043;-77
2021/07/20 09:05:17;;;;;;;13.10;7.70;;;;;;;;;;4953872;29;20031;-77
2021/07/20 09:08:00;;;;;;;14.77;8.68;;;;;;;;;;4951530;29;20035;-77
2021/07/20 09:10:30;;;;;;;11.43;7.53;;;;;;;;;;4952433;28;20380;-77
2021/07/20 09:12:56;;;;;;;13.65;8.35;;;;;;;;;;4953291;29;20060;-77
2021/07/20 09:15:25;;;;;;;10.30;7.45;;;;;;;;;;4953427;29;20592;-77
2021/07/20 09:18:10;;;;;;;13.48;7.55;;;;;;;;;;4953617;29;20024;-78
2021/07/20 09:20:37;;;;;;;12.75;8.18;;;;;;;;;;4953691;28;20032;-77
2021/07/20 09:23:14;;;;;;;13.82;8.10;;;;;;;;;;4969411;28;20032;-77
2021/07/20 09:25:43;;;;;;;12.23;8.32;;;;;;;;;;4952626;29;20034;-77
2021/07/20 09:28:09;;;;;;;13.50;7.82;;;;;;;;;;4965797;28;20098;-77
2021/07/20 09:30:39;;;;;;;13.57;8.48;;;;;;;;;;4953784;28;20656;-77
2021/07/20 09:33:23;;;;;;;11.57;7.90;;;;;;;;;;4950951;28;20031;-77
2021/07/20 09:35:56;;;;;;;14.50;9.18;;;;;;;;;;4950891;29;20034;-77
2021/07/20 09:38:41;;;;;;;13.55;7.97;;;;;;;;;;4967262;28;20484;-78
2021/07/20 09:41:16;;;;;;;15.80;8.50;;;;;;;;;;4952293;29;20373;-77
2021/07/20 09:43:45;;;;;;;14.95;8.63;;;;;;;;;;4952836;28;20023;-77
2021/07/20 09:46:17;;;;;;;16.02;9.48;;;;;;;;;;4952177;28;20031;-77
2021/07/20 09:48:50;;;;;;;12.70;8.10;;;;;;;;;;4958960;28;20023;-77
2021/07/20 09:51:25;;;;;;;13.63;9.88;;;;;;;;;;4956710;29;20041;-78
2021/07/20 09:53:51;;;;;;;11.98;8.10;;;;;;;;;;4957594;28;20081;-78
2021/07/20 09:56:35;;;;;;;15.23;8.80;;;;;;;;;;4972857;28;20119;-77
2021/07/20 09:59:06;;;;;;;12.80;8.10;;;;;;;;;;4936842;29;20067;-77
2021/07/20 10:01:35;;;;;;;11.57;8.13;;;;;;;;;;4949784;29;20035;-77
2021/07/20 10:04:19;;;;;;;12.13;8.20;;;;;;;;;;4955828;28;20031;-78
2021/07/20 10:07:04;;;;;;;12.82;8.63;;;;;;;;;;4956836;28;20035;-77
2021/07/20 10:09:48;;;;;;;14.85;8.30;;;;;;;;;;4954796;28;20042;-77
2021/07/20 10:12:46;;;;;;;13.55;8.65;;;;;;;;;;4956087;28;20036;-76
2021/07/20 10:15:16;;;;;;;12.73;8.75;;;;;;;;;;4935334;28;20043;-79
2021/07/20 10:17:56;;;;;;;15.10;8.32;;;;;;;;;;4972245;28;20086;-77
2021/07/20 10:20:23;;;;;;;16.25;10.25;;;;;;;;;;4970175;28;20114;-77
2021/07/20 10:22:49;;;;;;;12.38;8.05;;;;;;;;;;4956476;28;20035;-77
2021/07/20 10:25:34;;;;;;;13.10;8.82;;;;;;;;;;4957381;29;20114;-77
2021/07/20 10:28:07;;;;;;;12.80;8.23;;;;;;;;;;4956560;29;20443;-78
2021/07/20 10:30:36;;;;;;;14.40;8.60;;;;;;;;;;4973068;28;20051;-78
2021/07/20 10:33:20;;;;;;;14.45;8.57;;;;;;;;;;4971781;28;20027;-77
2021/07/20 10:36:02;;;;;;;17.38;9.15;;;;;;;;;;4961413;28;20045;-77
2021/07/20 10:38:37;;;;;;;12.93;8.63;;;;;;;;;;4962344;28;20059;-77
2021/07/20 10:41:08;;;;;;;13.23;8.13;;;;;;;;;;4956383;29;20031;-77
2021/07/20 10:43:40;;;;;;;12.02;8.43;;;;;;;;;;4959619;29;20140;-77
2021/07/20 10:46:07;;;;;;;14.00;8.27;;;;;;;;;;4963979;28;20023;-78
2021/07/20 10:48:37;;;;;;;12.00;8.88;;;;;;;;;;4980478;28;20031;-78
2021/07/20 10:51:29;;;;;;;15.05;8.50;;;;;;;;;;4965609;29;20027;-78
2021/07/20 10:53:59;;;;;;;17.55;8.65;;;;;;;;;;4962921;29;20039;-78
2021/07/20 10:56:41;;;;;;;12.82;9.07;;;;;;;;;;4965628;28;20046;-78
2021/07/20 10:59:07;;;;;;;12.32;8.77;;;;;;;;;;4959854;28;20020;-77
2021/07/20 11:01:36;;;;;;;14.82;9.40;;;;;;;;;;4956894;29;20166;-80
2021/07/20 11:04:05;;;;;;;17.73;8.57;;;;;;;;;;4957624;29;20054;-79
2021/07/20 11:06:31;;;;;;;14.88;9.02;;;;;;;;;;4956633;29;20039;-77
2021/07/20 11:08:59;;;;;;;17.02;9.27;;;;;;;;;;4954499;28;20031;-79
2021/07/20 11:11:28;;;;;;;13.15;8.73;;;;;;;;;;4956060;28;20050;-81
2021/07/20 11:13:54;;;;;;;13.63;8.98;;;;;;;;;;4961473;28;20139;-79
2021/07/20 11:16:21;;;;;;;16.70;9.25;;;;;;;;;;4958354;28;20035;-77
2021/07/20 11:18:51;;;;;;;12.63;8.88;;;;;;;;;;4955939;28;20027;-79
2021/07/20 11:21:21;;;;;;;15.00;9.13;;;;;;;;;;4959240;28;20051;-79
2021/07/20 11:23:48;;;;;;;12.93;8.63;;;;;;;;;;4958911;28;20023;-80
2021/07/20 11:26:16;;;;;;;11.38;8.95;;;;;;;;;;4956079;28;20050;-79
2021/07/20 11:28:45;;;;;;;12.75;9.10;;;;;;;;;;4957091;28;20023;-77
2021/07/20 11:31:14;;;;;;;12.88;9.07;;;;;;;;;;4950949;28;20023;-79
2021/07/20 11:33:42;;;;;;;10.02;8.18;;;;;;;;;;4955245;29;20035;-80
2021/07/20 11:36:08;;;;;;;11.52;8.32;;;;;;;;;;4956410;28;20059;-79
2021/07/20 11:38:36;;;;;;;11.05;8.18;;;;;;;;;;4956518;28;20098;-78
2021/07/20 11:41:21;;;;;;;13.50;8.98;;;;;;;;;;4956618;28;20035;-77
2021/07/20 11:44:06;;;;;;;12.23;8.55;;;;;;;;;;4953977;29;20105;-77
2021/07/20 11:46:54;;;;;;;10.63;8.18;;;;;;;;;;4955132;29;20086;-78
2021/07/20 11:49:28;;;;;;;10.85;7.60;;;;;;;;;;4953655;28;20023;-78
2021/07/20 11:52:01;;;;;;;11.20;8.35;;;;;;;;;;4954524;29;20038;-77
2021/07/20 11:54:27;;;;;;;11.40;7.88;;;;;;;;;;4972514;28;20032;-78
2021/07/20 11:57:00;;;;;;;12.50;8.52;;;;;;;;;;4955972;29;20360;-77
2021/07/20 11:59:41;;;;;;;13.07;7.82;;;;;;;;;;4967606;28;20568;-79
2021/07/20 12:02:26;;;;;;;18.48;11.82;;;;;;;;;;4950947;28;20027;-78
2021/07/20 12:04:55;;;;;;;13.07;9.30;;;;;;;;;;4953627;29;20750;-78
2021/07/20 12:07:25;;;;;;;15.23;9.07;;;;;;;;;;4952973;28;20035;-78
2021/07/20 12:09:54;;;;;;;12.85;8.15;;;;;;;;;;4952722;28;20034;-79
2021/07/20 12:12:21;;;;;;;14.65;7.75;;;;;;;;;;4953182;29;20028;-79
2021/07/20 12:14:48;;;;;;;10.25;8.18;;;;;;;;;;4967926;28;20036;-79
2021/07/20 12:17:15;;;;;;;12.27;7.95;;;;;;;;;;4968205;28;20055;-79
2021/07/20 12:19:41;;;;;;;11.93;7.72;;;;;;;;;;4967509;28;20027;-79
2021/07/20 12:22:08;;;;;;;10.35;7.70;;;;;;;;;;4953559;29;20399;-79
2021/07/20 12:24:35;;;;;;;12.23;8.35;;;;;;;;;;4953647;29;20042;-79
2021/07/20 12:27:04;;;;;;;14.50;8.50;;;;;;;;;;4951959;29;20089;-78
2021/07/20 12:29:30;;;;;;;10.27;7.18;;;;;;;;;;4952513;28;20023;-78
2021/07/20 12:31:56;;;;;;;13.38;8.00;;;;;;;;;;4953549;29;20027;-78
2021/07/20 12:34:23;;;;;;;12.90;9.18;;;;;;;;;;4954496;28;20472;-77
2021/07/20 12:36:49;;;;;;;12.88;8.45;;;;;;;;;;4953383;28;20026;-80
2021/07/20 12:39:17;;;;;;;9.57;7.65;;;;;;;;;;4952693;28;20047;-80
2021/07/20 12:41:47;;;;;;;12.15;8.13;;;;;;;;;;4953294;28;20581;-78
2021/07/20 12:44:13;;;;;;;9.93;7.90;;;;;;;;;;4953230;28;20028;-78
2021/07/20 12:46:40;;;;;;;9.98;7.88;;;;;;;;;;4953572;29;20518;-79
2021/07/20 12:49:06;;;;;;;13.32;7.40;;;;;;;;;;4939721;29;20055;-78
2021/07/20 12:51:33;;;;;;;10.75;7.75;;;;;;;;;;4937309;29;20042;-78
2021/07/20 12:53:59;;;;;;;14.77;7.93;;;;;;;;;;4937297;29;20020;-77
2021/07/20 12:56:29;;;;;;;11.05;7.30;;;;;;;;;;4935103;29;20070;-79
2021/07/20 12:59:00;;;;;;;11.70;7.70;;;;;;;;;;4953023;28;20062;-79
2021/07/20 13:01:26;;;;;;;10.98;7.95;;;;;;;;;;4953040;29;20117;-78
2021/07/20 13:03:53;;;;;;;12.07;8.27;;;;;;;;;;4953452;29;20536;-78
2021/07/20 13:06:19;;;;;;;8.85;6.93;;;;;;;;;;4954511;29;20027;-78
2021/07/20 13:08:49;;;;;;;10.20;7.13;;;;;;;;;;4953377;28;20686;-78
2021/07/20 13:11:15;;;;;;;9.77;7.50;;;;;;;;;;4953547;29;20458;-78
2021/07/20 13:13:44;;;;;;;11.65;7.57;;;;;;;;;;4952855;29;20028;-79
2021/07/20 13:16:13;;;;;;;9.45;7.95;;;;;;;;;;4934441;29;20397;-78
2021/07/20 13:18:39;;;;;;;9.75;7.20;;;;;;;;;;4939751;28;20488;-79
2021/07/20 13:21:05;;;;;;;9.52;7.43;;;;;;;;;;4956431;29;20142;-79
2021/07/20 13:23:40;;;;;;;11.88;7.65;;;;;;;;;;4957207;29;20031;-79
2021/07/20 13:26:06;;;;;;;11.00;7.50;;;;;;;;;;4956738;29;20030;-79
2021/07/20 13:28:32;;;;;;;10.18;6.80;;;;;;;;;;4956457;28;20035;-78
2021/07/20 13:31:02;;;;;;;8.30;6.63;;;;;;;;;;4955940;28;20035;-78
2021/07/20 13:33:28;;;;;;;9.40;7.22;;;26.00;65.80;;;;;;4957245;29;20496;-79
2021/07/20 13:35:57;;;;;;;10.13;7.70;;;36.20;50.00;;;;;;4957048;28;20087;-78
2021/07/20 13:38:31;;;;;;;9.60;7.10;;;35.70;49.10;;;;;;4957187;29;20041;-80
2021/07/20 13:40:59;;;;;;;9.02;6.90;;;36.10;48.60;;;;;;4971429;28;20121;-79
2021/07/20 13:43:26;;;;;;;8.85;6.90;;;36.80;48.20;;;;;;4956686;28;20058;-79
2021/07/20 13:45:53;;;;;;;15.52;6.95;;;36.70;47.60;;;;;;4956379;28;20023;-79
2021/07/20 13:48:21;;;;;;;10.32;6.88;;;37.10;46.20;;;;;;4956589;28;20110;-79
2021/07/20 13:50:50;;;;;;;9.23;7.28;;;37.80;46.60;;;;;;4956649;29;20420;-79
2021/07/20 13:53:23;;;;;;;9.35;7.20;;;37.90;45.90;;;;;;4956633;28;20031;-80
2021/07/20 13:56:05;;;;;;;9.07;7.07;;;38.60;45.30;;;;;;4956945;28;20023;-78
2021/07/20 13:58:33;;;;;;;11.15;7.38;;;37.80;46.50;;;;;;4957337;28;20526;-81
2021/07/20 14:01:00;;;;;;;10.23;6.88;;;37.80;45.50;;;;;;4956070;28;20519;-78
2021/07/20 14:03:29;;;;;;;13.38;7.90;;;37.20;45.40;;;;;;4956398;28;20436;-80
2021/07/20 14:05:55;;;;;;;11.23;6.93;;;37.00;46.60;;;;;;4958192;28;20031;-79
2021/07/20 14:08:22;;;;;;;9.30;7.28;;;37.30;46.60;;;;;;4958050;28;20038;-78
2021/07/20 14:10:50;;;;;;;10.05;6.93;;;37.40;45.70;;;;;;4957065;28;20043;-78
2021/07/20 14:13:16;;;;;;;12.63;6.70;;;37.70;45.50;;;;;;4958208;28;20115;-79
2021/07/20 14:15:42;;;;;;;11.32;7.00;;;36.90;44.90;;;;;;4955626;28;20519;-79
2021/07/20 14:18:09;;;;;;;9.05;6.88;;;36.10;45.50;;;;;;4956277;28;20040;-79
2021/07/20 14:20:36;;;;;;;8.90;6.78;;;36.00;46.80;;;;;;4955450;28;20030;-78
2021/07/20 14:23:05;;;;;;;8.35;7.00;;;35.60;46.00;;;;;;4948598;29;20038;-78
2021/07/20 14:25:48;;;;;;;9.77;7.10;;;35.70;46.60;;;;;;4956366;28;20050;-78
2021/07/20 14:28:15;;;;;;;10.80;6.65;;;36.20;45.90;;;;;;4956146;28;20034;-79
2021/07/20 14:30:46;;;;;;;9.60;6.45;;;37.00;44.80;;;;;;4958300;28;20079;-79